Time,TemperatureF,DewpointF,PressureIn,WindDirection,WindDirectionDegrees,WindSpeedMPH,WindSpeedGustMPH,Humidity,HourlyPrecipIn,Conditions,Clouds,dailyrainin,SoftwareType,DateUTC
2013-02-26 00:00:00,30.5,26.5,30.27,East,96,0.0,0.0,85,0.00,,---,0.00,VWS V14.01,2013-02-26 05:00:00,
2013-02-26 00:02:00,30.4,26.4,30.27,East,96,0.0,0.0,85,0.00,,---,0.00,VWS V14.01,2013-02-26 05:02:00,
2013-02-26 00:17:00,30.1,26.4,30.28,East,96,0.0,0.0,86,0.00,,---,0.00,VWS V14.01,2013-02-26 05:17:00,
2013-02-26 00:30:00,30.1,26.4,30.28,East,96,0.0,0.0,86,0.00,,---,0.00,VWS V14.01,2013-02-26 05:30:00,
2013-02-26 00:32:00,30.1,26.4,30.28,East,96,0.0,0.0,86,0.00,,---,0.00,VWS V14.01,2013-02-26 05:32:00,
2013-02-26 00:47:00,29.9,26.2,30.29,East,96,0.0,0.0,86,0.00,,---,0.00,VWS V14.01,2013-02-26 05:47:00,
2013-02-26 01:00:00,29.9,26.5,30.29,East,96,0.0,0.0,87,0.00,,---,0.00,VWS V14.01,2013-02-26 06:00:00,
2013-02-26 01:02:00,29.9,26.5,30.28,East,96,0.0,0.0,87,0.00,,---,0.00,VWS V14.01,2013-02-26 06:02:00,
2013-02-26 01:17:00,29.7,26.3,30.28,East,96,0.0,0.0,87,0.00,,---,0.00,VWS V14.01,2013-02-26 06:17:00,
2013-02-26 01:30:00,29.6,26.2,30.26,East,96,0.0,0.0,87,0.00,,---,0.00,VWS V14.01,2013-02-26 06:30:00,
2013-02-26 01:32:00,29.6,26.2,30.26,East,96,0.0,0.0,87,0.00,,---,0.00,VWS V14.01,2013-02-26 06:32:00,
2013-02-26 01:47:00,29.9,26.8,30.27,East,96,0.0,0.0,88,0.00,,---,0.00,VWS V14.01,2013-02-26 06:47:00,
2013-02-26 02:00:00,30.1,27.0,30.27,East,96,0.0,0.0,88,0.00,,---,0.00,VWS V14.01,2013-02-26 07:00:00,
2013-02-26 02:02:00,30.1,27.0,30.27,East,96,0.0,0.0,88,0.00,,---,0.00,VWS V14.01,2013-02-26 07:02:00,
2013-02-26 02:17:00,30.0,26.9,30.25,East,96,0.0,0.0,88,0.00,,---,0.00,VWS V14.01,2013-02-26 07:17:00,
2013-02-26 02:30:00,29.9,26.8,30.25,East,96,0.0,0.0,88,0.00,,---,0.00,VWS V14.01,2013-02-26 07:30:00,
2013-02-26 02:33:00,29.9,26.8,30.25,East,96,0.0,0.0,88,0.00,,---,0.00,VWS V14.01,2013-02-26 07:33:00,
2013-02-26 02:47:00,30.1,27.3,30.25,East,96,0.0,0.0,89,0.00,,---,0.00,VWS V14.01,2013-02-26 07:47:00,
2013-02-26 03:00:00,30.2,27.4,30.25,East,96,0.0,0.0,89,0.00,,---,0.00,VWS V14.01,2013-02-26 08:00:00,
2013-02-26 03:03:00,30.2,27.4,30.25,East,96,0.0,0.0,89,0.00,,---,0.00,VWS V14.01,2013-02-26 08:03:00,
2013-02-26 03:17:00,30.1,27.3,30.23,East,96,0.0,0.0,89,0.00,,---,0.00,VWS V14.01,2013-02-26 08:17:00,
2013-02-26 03:30:00,30.4,27.8,30.24,East,96,0.0,0.0,90,0.00,,---,0.00,VWS V14.01,2013-02-26 08:30:00,
2013-02-26 03:33:00,30.5,27.9,30.24,East,96,0.0,0.0,90,0.00,,---,0.00,VWS V14.01,2013-02-26 08:33:00,
2013-02-26 03:48:00,30.5,27.9,30.23,East,96,0.0,0.0,90,0.00,,---,0.00,VWS V14.01,2013-02-26 08:48:00,
2013-02-26 04:00:00,30.8,28.2,30.25,East,96,0.0,0.0,90,0.00,,---,0.00,VWS V14.01,2013-02-26 09:00:00,
2013-02-26 04:03:00,30.9,28.3,30.25,East,96,0.0,0.0,90,0.00,,---,0.00,VWS V14.01,2013-02-26 09:03:00,
2013-02-26 04:18:00,31.0,28.4,30.25,East,96,0.0,0.0,90,0.00,,---,0.00,VWS V14.01,2013-02-26 09:18:00,
2013-02-26 04:30:00,30.9,28.0,30.25,East,96,0.0,0.0,89,0.00,,---,0.00,VWS V14.01,2013-02-26 09:30:00,
2013-02-26 04:33:00,31.0,28.1,30.25,East,96,0.0,0.0,89,0.00,,---,0.00,VWS V14.01,2013-02-26 09:33:00,
2013-02-26 04:48:00,30.8,28.0,30.25,East,96,0.0,0.0,89,0.00,,---,0.00,VWS V14.01,2013-02-26 09:48:00,
2013-02-26 05:00:00,30.9,28.3,30.25,East,96,0.0,0.0,90,0.00,,---,0.00,VWS V14.01,2013-02-26 10:00:00,
2013-02-26 05:03:00,30.9,28.3,30.25,East,96,0.0,0.0,90,0.00,,---,0.00,VWS V14.01,2013-02-26 10:03:00,
2013-02-26 05:18:00,31.1,28.5,30.25,East,96,0.0,0.0,90,0.00,,---,0.00,VWS V14.01,2013-02-26 10:18:00,
2013-02-26 05:30:00,31.3,28.7,30.24,East,96,0.0,0.0,90,0.00,,---,0.00,VWS V14.01,2013-02-26 10:30:00,
2013-02-26 05:33:00,31.4,28.8,30.24,East,96,0.0,0.0,90,0.00,,---,0.00,VWS V14.01,2013-02-26 10:33:00,
2013-02-26 05:48:00,31.6,29.0,30.24,East,96,0.0,0.0,90,0.00,,---,0.00,VWS V14.01,2013-02-26 10:48:00,
2013-02-26 06:00:00,31.7,29.1,30.24,East,96,0.0,0.0,90,0.00,,---,0.00,VWS V14.01,2013-02-26 11:00:00,
2013-02-26 06:03:00,31.8,29.2,30.23,East,96,0.0,0.0,90,0.00,,---,0.00,VWS V14.01,2013-02-26 11:03:00,
2013-02-26 06:18:00,32.6,30.3,30.24,East,96,0.0,0.0,91,0.00,,---,0.00,VWS V14.01,2013-02-26 11:18:00,
2013-02-26 06:30:00,33.4,31.1,30.24,East,96,0.0,0.0,91,0.00,,---,0.00,VWS V14.01,2013-02-26 11:30:00,
2013-02-26 06:33:00,33.7,31.4,30.24,East,96,0.0,1.0,91,0.00,,---,0.00,VWS V14.01,2013-02-26 11:33:00,
2013-02-26 06:48:00,34.4,31.5,30.23,East,94,1.0,1.0,89,0.00,,---,0.00,VWS V14.01,2013-02-26 11:48:00,
2013-02-26 07:00:00,34.8,31.9,30.23,East,88,0.0,2.0,89,0.00,,---,0.00,VWS V14.01,2013-02-26 12:00:00,
2013-02-26 07:03:00,35.0,32.1,30.23,East,88,0.0,1.0,89,0.00,,---,0.00,VWS V14.01,2013-02-26 12:03:00,
2013-02-26 07:18:00,35.5,32.3,30.23,ENE,72,0.0,1.0,88,0.00,,---,0.00,VWS V14.01,2013-02-26 12:18:00,
2013-02-26 07:30:00,35.9,32.4,30.23,ENE,72,0.0,1.0,87,0.00,,---,0.00,VWS V14.01,2013-02-26 12:30:00,
2013-02-26 07:33:00,36.1,32.6,30.23,ENE,73,1.0,1.0,87,0.00,,---,0.00,VWS V14.01,2013-02-26 12:33:00,
2013-02-26 07:48:00,36.8,32.7,30.24,ENE,73,0.0,1.0,85,0.00,,---,0.00,VWS V14.01,2013-02-26 12:48:00,
2013-02-26 08:00:00,37.6,32.6,30.24,NE,44,1.0,1.0,82,0.00,,---,0.00,VWS V14.01,2013-02-26 13:00:00,
2013-02-26 08:03:00,37.8,32.8,30.24,NE,44,0.0,1.0,82,0.00,,---,0.00,VWS V14.01,2013-02-26 13:03:00,
2013-02-26 08:18:00,38.6,33.0,30.24,West,273,0.0,2.0,80,0.00,,---,0.00,VWS V14.01,2013-02-26 13:18:00,
2013-02-26 08:30:00,39.1,32.2,30.25,East,101,0.0,3.0,76,0.00,,---,0.00,VWS V14.01,2013-02-26 13:30:00,
2013-02-26 08:33:00,39.2,32.3,30.24,ESE,115,1.0,3.0,76,0.00,,---,0.00,VWS V14.01,2013-02-26 13:33:00,
2013-02-26 08:48:00,39.5,32.6,30.24,ESE,111,0.0,4.0,76,0.00,,---,0.00,VWS V14.01,2013-02-26 13:48:00,
2013-02-26 09:00:00,39.6,32.7,30.23,ESE,115,0.0,4.0,76,0.00,,---,0.00,VWS V14.01,2013-02-26 14:00:00,
2013-02-26 09:03:00,39.7,32.8,30.23,ESE,114,0.0,1.0,76,0.00,,---,0.00,VWS V14.01,2013-02-26 14:03:00,
2013-02-26 09:18:00,40.0,33.4,30.21,NE,52,0.0,4.0,77,0.00,,---,0.00,VWS V14.01,2013-02-26 14:18:00,
2013-02-26 09:30:00,40.1,33.2,30.21,SSW,206,0.0,4.0,76,0.00,,---,0.00,VWS V14.01,2013-02-26 14:30:00,
2013-02-26 09:33:00,40.2,33.2,30.21,ESE,107,0.0,2.0,76,0.00,,---,0.00,VWS V14.01,2013-02-26 14:33:00,
2013-02-26 09:48:00,40.3,33.3,30.20,ENE,61,0.0,3.0,76,0.00,,---,0.00,VWS V14.01,2013-02-26 14:48:00,
2013-02-26 10:00:00,40.6,33.6,30.20,ESE,106,2.0,5.0,76,0.00,,---,0.00,VWS V14.01,2013-02-26 15:00:00,
2013-02-26 10:03:00,40.7,33.7,30.20,ESE,107,0.0,3.0,76,0.00,,---,0.00,VWS V14.01,2013-02-26 15:03:00,
2013-02-26 10:18:00,40.7,34.7,30.19,ESE,104,0.0,3.0,79,0.00,,---,0.00,VWS V14.01,2013-02-26 15:18:00,
2013-02-26 10:30:00,40.5,35.1,30.18,NE,38,0.0,3.0,81,0.01,,---,0.01,VWS V14.01,2013-02-26 15:30:00,
2013-02-26 10:33:00,40.5,35.5,30.18,NE,44,1.0,2.0,82,0.01,,---,0.01,VWS V14.01,2013-02-26 15:33:00,
2013-02-26 10:48:00,40.2,35.8,30.17,ENE,75,0.0,4.0,84,0.01,,---,0.01,VWS V14.01,2013-02-26 15:48:00,
2013-02-26 11:00:00,40.0,35.9,30.16,ENE,76,0.0,4.0,85,0.02,,---,0.02,VWS V14.01,2013-02-26 16:00:00,
2013-02-26 11:03:00,40.0,36.2,30.16,ENE,76,0.0,1.0,86,0.02,,---,0.02,VWS V14.01,2013-02-26 16:03:00,
2013-02-26 11:18:00,39.9,36.3,30.16,East,91,0.0,3.0,87,0.03,,---,0.03,VWS V14.01,2013-02-26 16:18:00,
2013-02-26 11:30:00,40.1,37.1,30.15,East,91,0.0,3.0,89,0.03,,---,0.03,VWS V14.01,2013-02-26 16:30:00,
2013-02-26 11:33:00,40.0,36.7,30.15,ESE,110,0.0,3.0,88,0.02,,---,0.03,VWS V14.01,2013-02-26 16:33:00,
2013-02-26 11:48:00,40.0,37.3,30.14,ESE,111,0.0,3.0,90,0.03,,---,0.04,VWS V14.01,2013-02-26 16:48:00,
2013-02-26 12:00:00,39.9,37.2,30.12,ENE,60,0.0,3.0,90,0.04,,---,0.05,VWS V14.01,2013-02-26 17:00:00,
2013-02-26 12:03:00,39.9,37.5,30.12,NE,36,0.0,3.0,91,0.03,,---,0.05,VWS V14.01,2013-02-26 17:03:00,
2013-02-26 12:18:00,40.1,38.0,30.10,NE,49,1.0,3.0,92,0.04,,---,0.06,VWS V14.01,2013-02-26 17:18:00,
2013-02-26 12:30:00,40.2,38.1,30.09,NE,41,0.0,6.0,92,0.05,,---,0.07,VWS V14.01,2013-02-26 17:30:00,
2013-02-26 12:33:00,40.3,38.2,30.10,East,80,0.0,1.0,92,0.04,,---,0.07,VWS V14.01,2013-02-26 17:33:00,
2013-02-26 12:48:00,40.5,38.4,30.09,NE,51,0.0,4.0,92,0.04,,---,0.07,VWS V14.01,2013-02-26 17:48:00,
2013-02-26 13:00:00,40.6,38.7,30.07,SE,127,0.0,5.0,93,0.05,,---,0.08,VWS V14.01,2013-02-26 18:00:00,
2013-02-26 13:03:00,40.7,38.8,30.07,NE,49,1.0,4.0,93,0.04,,---,0.09,VWS V14.01,2013-02-26 18:03:00,
2013-02-26 13:18:00,40.9,39.3,30.06,North,360,0.0,8.0,94,0.04,,---,0.09,VWS V14.01,2013-02-26 18:18:00,
2013-02-26 13:30:00,41.1,39.5,30.05,NNE,25,1.0,8.0,94,0.05,,---,0.10,VWS V14.01,2013-02-26 18:30:00,
2013-02-26 13:33:00,41.2,39.6,30.04,ENE,61,0.0,4.0,94,0.03,,---,0.10,VWS V14.01,2013-02-26 18:33:00,
2013-02-26 13:48:00,41.4,39.8,30.03,North,5,1.0,6.0,94,0.04,,---,0.11,VWS V14.01,2013-02-26 18:48:00,
2013-02-26 14:00:00,41.7,40.4,30.01,NNE,26,0.0,6.0,95,0.05,,---,0.12,VWS V14.01,2013-02-26 19:00:00,
2013-02-26 14:04:00,41.7,40.4,30.01,ENE,65,0.0,4.0,95,0.04,,---,0.12,VWS V14.01,2013-02-26 19:04:00,
2013-02-26 14:18:00,41.9,40.6,29.99,NE,53,1.0,7.0,95,0.05,,---,0.13,VWS V14.01,2013-02-26 19:18:00,
2013-02-26 14:30:00,42.1,40.8,29.97,ESE,115,2.0,13.0,95,0.06,,---,0.14,VWS V14.01,2013-02-26 19:30:00,
2013-02-26 14:34:00,42.2,40.9,29.97,East,86,2.0,7.0,95,0.04,,---,0.14,VWS V14.01,2013-02-26 19:34:00,
2013-02-26 14:49:00,42.4,41.1,29.96,NNE,22,4.0,7.0,95,0.05,,---,0.15,VWS V14.01,2013-02-26 19:49:00,
2013-02-26 15:00:00,42.5,41.2,29.95,ENE,74,3.0,7.0,95,0.05,,---,0.15,VWS V14.01,2013-02-26 20:00:00,
2013-02-26 15:04:00,42.6,41.3,29.95,NE,44,3.0,5.0,95,0.03,,---,0.15,VWS V14.01,2013-02-26 20:04:00,
2013-02-26 15:19:00,42.8,41.2,29.93,NE,53,3.0,8.0,94,0.03,,---,0.15,VWS V14.01,2013-02-26 20:19:00,
2013-02-26 15:30:00,43.1,41.5,29.91,NE,52,3.0,8.0,94,0.04,,---,0.16,VWS V14.01,2013-02-26 20:30:00,
2013-02-26 15:34:00,43.1,41.5,29.90,ENE,71,0.0,7.0,94,0.02,,---,0.16,VWS V14.01,2013-02-26 20:34:00,
2013-02-26 15:49:00,43.4,41.8,29.89,ESE,117,2.0,11.0,94,0.02,,---,0.16,VWS V14.01,2013-02-26 20:49:00,
2013-02-26 16:00:00,43.5,41.9,29.88,ESE,103,0.0,11.0,94,0.02,,---,0.16,VWS V14.01,2013-02-26 21:00:00,
2013-02-26 16:04:00,43.6,42.0,29.89,NNE,27,4.0,6.0,94,0.01,,---,0.16,VWS V14.01,2013-02-26 21:04:00,
2013-02-26 16:19:00,43.8,41.9,29.87,ESE,108,3.0,7.0,93,0.01,,---,0.16,VWS V14.01,2013-02-26 21:19:00,
2013-02-26 16:30:00,44.0,42.1,29.86,ENE,61,3.0,11.0,93,0.01,,---,0.16,VWS V14.01,2013-02-26 21:30:00,
2013-02-26 16:34:00,44.0,42.1,29.86,NE,53,3.0,7.0,93,0.00,,---,0.16,VWS V14.01,2013-02-26 21:34:00,
2013-02-26 16:49:00,43.9,42.0,29.84,ESE,105,0.0,7.0,93,0.00,,---,0.16,VWS V14.01,2013-02-26 21:49:00,
2013-02-26 17:00:00,43.7,41.8,29.83,NE,48,2.0,9.0,93,0.02,,---,0.18,VWS V14.01,2013-02-26 22:00:00,
2013-02-26 17:04:00,43.7,42.1,29.82,East,99,10.0,10.0,94,0.03,,---,0.19,VWS V14.01,2013-02-26 22:04:00,
2013-02-26 17:19:00,43.4,42.1,29.82,ENE,78,0.0,10.0,95,0.05,,---,0.21,VWS V14.01,2013-02-26 22:19:00,
2013-02-26 17:30:00,43.5,42.2,29.82,East,82,0.0,13.0,95,0.06,,---,0.22,VWS V14.01,2013-02-26 22:30:00,
2013-02-26 17:34:00,43.5,42.2,29.81,ENE,63,4.0,8.0,95,0.06,,---,0.22,VWS V14.01,2013-02-26 22:34:00,
2013-02-26 17:49:00,43.6,42.5,29.80,East,88,1.0,8.0,96,0.06,,---,0.22,VWS V14.01,2013-02-26 22:49:00,
2013-02-26 18:00:00,43.8,42.7,29.80,ESE,123,2.0,9.0,96,0.06,,---,0.22,VWS V14.01,2013-02-26 23:00:00,
2013-02-26 18:04:00,43.9,42.8,29.80,NE,43,0.0,7.0,96,0.04,,---,0.22,VWS V14.01,2013-02-26 23:04:00,
2013-02-26 18:19:00,44.1,43.0,29.78,ESE,107,2.0,8.0,96,0.07,,---,0.25,VWS V14.01,2013-02-26 23:19:00,
2013-02-26 18:30:00,44.3,43.2,29.77,ESE,113,2.0,10.0,96,0.07,,---,0.25,VWS V14.01,2013-02-26 23:30:00,
2013-02-26 18:34:00,44.4,43.3,29.77,East,97,1.0,7.0,96,0.05,,---,0.27,VWS V14.01,2013-02-26 23:34:00,
2013-02-26 18:49:00,44.6,43.8,29.75,ENE,71,2.0,7.0,97,0.07,,---,0.29,VWS V14.01,2013-02-26 23:49:00,
2013-02-26 19:00:00,44.8,44.0,29.76,NE,36,4.0,7.0,97,0.08,,---,0.30,VWS V14.01,2013-02-27 00:00:00,
2013-02-26 19:04:00,44.9,44.1,29.75,ENE,71,3.0,4.0,97,0.09,,---,0.31,VWS V14.01,2013-02-27 00:04:00,
2013-02-26 19:19:00,45.0,44.2,29.74,NE,44,1.0,5.0,97,0.11,,---,0.33,VWS V14.01,2013-02-27 00:19:00,
2013-02-26 19:30:00,45.0,44.2,29.75,SW,232,0.0,5.0,97,0.13,,---,0.35,VWS V14.01,2013-02-27 00:30:00,
2013-02-26 19:34:00,45.0,44.2,29.76,SW,232,0.0,1.0,97,0.10,,---,0.35,VWS V14.01,2013-02-27 00:34:00,
2013-02-26 19:49:00,45.0,44.2,29.78,NNW,330,0.0,2.0,97,0.14,,---,0.39,VWS V14.01,2013-02-27 00:49:00,
2013-02-26 20:00:00,45.1,44.3,29.77,NNW,330,1.0,2.0,97,0.20,,---,0.45,VWS V14.01,2013-02-27 01:00:00,
2013-02-26 20:04:00,45.1,44.3,29.77,East,80,0.0,2.0,97,0.19,,---,0.49,VWS V14.01,2013-02-27 01:04:00,
2013-02-26 20:19:00,45.1,44.6,29.76,NE,42,1.0,2.0,98,0.23,,---,0.53,VWS V14.01,2013-02-27 01:19:00,
2013-02-26 20:30:00,45.0,44.5,29.75,ENE,59,1.0,2.0,98,0.25,,---,0.55,VWS V14.01,2013-02-27 01:30:00,
2013-02-26 20:34:00,45.0,44.2,29.74,NE,38,1.0,3.0,97,0.22,,---,0.57,VWS V14.01,2013-02-27 01:34:00,
2013-02-26 20:49:00,45.0,44.5,29.73,NE,48,0.0,4.0,98,0.24,,---,0.59,VWS V14.01,2013-02-27 01:49:00,
2013-02-26 21:00:00,45.0,44.5,29.70,North,11,1.0,4.0,98,0.25,,---,0.60,VWS V14.01,2013-02-27 02:00:00,
2013-02-26 21:04:00,45.0,44.5,29.70,NNE,28,2.0,3.0,98,0.16,,---,0.61,VWS V14.01,2013-02-27 02:04:00,
2013-02-26 21:19:00,45.0,44.5,29.69,North,9,1.0,4.0,98,0.16,,---,0.61,VWS V14.01,2013-02-27 02:19:00,
2013-02-26 21:30:00,45.0,44.5,29.69,NE,53,0.0,5.0,98,0.16,,---,0.61,VWS V14.01,2013-02-27 02:30:00,
2013-02-26 21:34:00,45.0,44.5,29.68,ENE,59,1.0,6.0,98,0.06,,---,0.61,VWS V14.01,2013-02-27 02:34:00,
2013-02-26 21:49:00,45.0,44.5,29.68,NE,53,2.0,6.0,98,0.06,,---,0.61,VWS V14.01,2013-02-27 02:49:00,
2013-02-26 22:00:00,45.1,44.6,29.67,NNE,19,0.0,6.0,98,0.06,,---,0.61,VWS V14.01,2013-02-27 03:00:00,
2013-02-26 22:04:00,45.2,44.7,29.67,ENE,68,0.0,4.0,98,0.01,,---,0.61,VWS V14.01,2013-02-27 03:04:00,
2013-02-26 22:19:00,45.1,44.6,29.66,NNE,31,0.0,4.0,98,0.02,,---,0.62,VWS V14.01,2013-02-27 03:19:00,
2013-02-26 22:30:00,45.1,44.6,29.66,NE,53,0.0,4.0,98,0.02,,---,0.62,VWS V14.01,2013-02-27 03:30:00,
2013-02-26 22:34:00,45.2,44.9,29.66,NE,39,1.0,2.0,99,0.02,,---,0.63,VWS V14.01,2013-02-27 03:34:00,
2013-02-26 22:49:00,45.3,45.0,29.65,NE,55,0.0,3.0,99,0.02,,---,0.63,VWS V14.01,2013-02-27 03:49:00,
2013-02-26 23:00:00,45.4,45.1,29.65,NNW,342,0.0,3.0,99,0.02,,---,0.63,VWS V14.01,2013-02-27 04:00:00,
2013-02-26 23:04:00,45.4,45.1,29.64,NNW,344,0.0,2.0,99,0.02,,---,0.63,VWS V14.01,2013-02-27 04:04:00,
2013-02-26 23:19:00,45.5,45.2,29.64,NE,50,0.0,3.0,99,0.02,,---,0.63,VWS V14.01,2013-02-27 04:19:00,
2013-02-26 23:30:00,45.6,45.3,29.63,NE,50,1.0,3.0,99,0.02,,---,0.63,VWS V14.01,2013-02-27 04:30:00,
2013-02-26 23:34:00,45.8,45.5,29.63,NE,49,0.0,3.0,99,0.01,,---,0.63,VWS V14.01,2013-02-27 04:34:00,
2013-02-26 23:49:00,46.0,45.7,29.62,NE,56,0.0,4.0,99,0.01,,---,0.63,VWS V14.01,2013-02-27 04:49:00,